Time;durP1;ratioP1;P1;durP2;ratioP2;P2;SDS_P1;SDS_P2;PMS_P1;PMS_P2;Temp;Humidity;BMP_temperature;BMP_pressure;BME280_temperature;BME280_humidity;BME280_pressure;Samples;Min_cycle;Max_cycle;Signal;HPM_P1;HPM_P2
2023/07/05 06:13:54;;;;;;;15.95;8.27;;;;;;;22.46;100.00;100350.19;6520691;26;884679;-84
2023/07/05 06:16:58;;;;;;;17.52;8.35;;;;;;;22.59;100.00;100345.16;6633124;26;33965;-84
2023/07/05 06:20:00;;;;;;;14.63;7.97;;;;;;;22.73;100.00;100342.81;6596658;26;34358;-84
2023/07/05 06:23:04;;;;;;;13.80;7.53;;;;;;;22.71;100.00;100344.16;6654042;26;34167;-84
2023/07/05 06:26:08;;;;;;;17.37;7.85;;;;;;;22.78;100.00;100340.09;6623936;26;34900;-83
2023/07/05 06:29:11;;;;;;;16.02;8.00;;;;;;;22.81;100.00;100333.28;6632481;26;33942;-83
2023/07/05 06:32:14;;;;;;;13.05;8.02;;;;;;;22.96;100.00;100338.97;6633297;26;34300;-83
2023/07/05 06:35:17;;;;;;;14.55;7.97;;;;;;;23.14;100.00;100343.22;6633125;26;33308;-83
2023/07/05 06:38:20;;;;;;;16.10;7.28;;;;;;;23.07;100.00;100332.44;6595190;26;33903;-83
2023/07/05 06:41:23;;;;;;;15.73;8.82;;;;;;;23.25;100.00;100333.97;6595341;26;34659;-83
2023/07/05 06:44:25;;;;;;;17.83;8.82;;;;;;;23.48;100.00;100327.25;6595397;26;34095;-83
2023/07/05 06:47:29;;;;;;;16.73;9.20;;;;;;;23.57;100.00;100322.09;6613259;26;34040;-83
2023/07/05 06:50:31;;;;;;;14.75;8.35;;;;;;;23.70;100.00;100327.16;6613479;26;33626;-83
2023/07/05 06:53:34;;;;;;;13.55;8.40;;;;;;;23.64;100.00;100327.38;6613831;26;34106;-83
2023/07/05 06:56:50;;;;;;;16.52;8.25;;;;;;;23.73;100.00;100328.56;6599608;26;33805;-83
2023/07/05 06:59:53;;;;;;;11.75;6.82;;;;;;;23.93;100.00;100325.91;6613456;26;35098;-85
2023/07/05 07:02:56;;;;;;;9.60;6.18;;;;;;;24.15;100.00;100325.72;6632747;26;34632;-83
2023/07/05 07:05:59;;;;;;;11.85;7.00;;;;;;;24.26;98.72;100320.25;6651188;26;34113;-84
2023/07/05 07:09:04;;;;;;;10.88;6.30;;;;;;;24.41;96.43;100320.28;6650370;26;35338;-88
2023/07/05 07:12:08;;;;;;;15.10;6.32;;;;;;;24.41;95.96;100318.37;6633060;26;34673;-88
2023/07/05 07:15:11;;;;;;;14.25;6.57;;;;;;;24.57;97.09;100313.78;6631875;26;33497;-88
2023/07/05 07:18:14;;;;;;;12.40;6.15;;;;;;;24.74;96.85;100310.75;6595245;26;33505;-84
2023/07/05 07:21:18;;;;;;;12.95;6.35;;;;;;;24.66;96.09;100309.38;6595111;26;34463;-84
2023/07/05 07:24:21;;;;;;;13.10;6.22;;;;;;;24.92;94.33;100314.06;6613682;26;34750;-84
2023/07/05 07:27:25;;;;;;;9.07;6.07;;;;;;;24.99;94.87;100311.87;6613149;26;34224;-84
2023/07/05 07:30:28;;;;;;;9.95;5.93;;;;;;;25.16;91.58;100315.22;6613251;26;34317;-84
2023/07/05 07:33:30;;;;;;;9.98;5.62;;;;;;;25.36;90.31;100313.53;6614259;26;34374;-83
2023/07/05 07:36:35;;;;;;;9.35;5.85;;;;;;;25.38;90.53;100317.66;6598040;26;35144;-84
2023/07/05 07:39:38;;;;;;;8.00;4.93;;;;;;;25.24;87.35;100311.06;6636298;26;33919;-84
2023/07/05 07:42:41;;;;;;;9.80;5.50;;;;;;;25.28;88.45;100317.69;6595491;26;33764;-84
2023/07/05 07:45:43;;;;;;;9.07;5.55;;;;;;;25.62;88.46;100306.03;6633153;26;34346;-84
2023/07/05 07:48:49;;;;;;;13.35;5.50;;;;;;;25.90;88.81;100312.88;6595426;26;33669;-84
2023/07/05 07:51:51;;;;;;;9.82;5.15;;;;;;;26.11;84.73;100322.72;6633075;26;34311;-83
2023/07/05 07:54:55;;;;;;;9.43;5.53;;;;;;;25.96;82.86;100315.34;6632827;26;34163;-84
2023/07/05 07:57:58;;;;;;;9.90;5.43;;;;;;;26.04;82.32;100318.63;6613876;26;33629;-84
2023/07/05 08:01:13;;;;;;;10.68;4.90;;;;;;;26.04;81.56;100321.41;6613962;26;34974;-84
2023/07/05 08:04:17;;;;;;;10.70;5.15;;;;;;;26.13;80.79;100319.69;6633741;26;33791;-84
2023/07/05 08:07:19;;;;;;;11.85;4.80;;;;;;;26.24;80.08;100318.53;6633962;26;33877;-84
2023/07/05 08:10:22;;;;;;;8.77;4.85;;;;;;;26.44;78.01;100312.06;6614150;26;33814;-84
2023/07/05 08:13:25;;;;;;;9.30;5.18;;;;;;;26.55;79.07;100310.09;6614323;26;33828;-84
2023/07/05 08:16:28;;;;;;;9.63;5.05;;;;;;;26.71;76.82;100311.66;6613708;26;34364;-84
2023/07/05 08:19:31;;;;;;;9.43;4.82;;;;;;;26.56;75.27;100308.97;6634214;26;34068;-84
2023/07/05 08:22:34;;;;;;;10.23;4.75;;;;;;;26.57;76.86;100303.19;6614422;26;35350;-84
2023/07/05 08:25:37;;;;;;;7.75;4.70;;;;;;;26.67;76.46;100307.81;6613905;26;34131;-83
2023/07/05 08:28:40;;;;;;;11.60;5.20;;;;;;;26.81;76.73;100302.47;6596026;26;33784;-84
2023/07/05 08:31:45;;;;;;;11.20;5.62;;;;;;;26.59;76.97;100305.66;6633977;26;33848;-84
2023/07/05 08:34:49;;;;;;;10.38;5.60;;;;;;;26.63;79.40;100298.47;6634213;26;33566;-84
2023/07/05 08:37:52;;;;;;;10.40;5.85;;;;;;;26.96;78.65;100299.56;6578206;26;33900;-84
2023/07/05 08:41:02;;;;;;;8.23;5.43;;;;;;;27.07;76.01;100298.37;6614996;26;34005;-84
2023/07/05 08:44:36;;;;;;;8.43;4.82;;;;;;;27.14;75.94;100287.81;6633678;26;34572;-84
2023/07/05 08:47:54;;;;;;;9.18;5.03;;;;;;;27.22;73.47;100297.44;6633660;26;34081;-87
2023/07/05 08:50:57;;;;;;;9.68;5.28;;;;;;;27.40;74.57;100292.31;6634264;26;33662;-84
2023/07/05 08:54:16;;;;;;;9.63;5.03;;;;;;;27.53;69.35;100297.16;6617703;26;33828;-84
2023/07/05 08:57:27;;;;;;;8.55;5.10;;;;;;;27.52;71.02;100298.25;6648567;26;35339;-84
2023/07/05 09:01:00;;;;;;;10.15;4.97;;;;;;;27.63;68.38;100294.25;6632502;26;35410;-84
2023/07/05 09:04:04;;;;;;;8.60;5.20;;;;;;;27.70;67.90;100286.44;6627488;26;33916;-84
2023/07/05 09:07:18;;;;;;;7.85;5.18;;;;;;;27.73;68.57;100285.84;6613872;26;34061;-84
2023/07/05 09:10:34;;;;;;;10.63;5.40;;;;;;;28.26;66.80;100290.47;6633789;26;33821;-84
2023/07/05 09:13:39;;;;;;;10.15;5.10;;;;;;;28.22;66.44;100283.88;6634393;26;33713;-84
2023/07/05 09:16:58;;;;;;;8.27;5.10;;;;;;;28.67;65.34;100276.88;6633848;26;33484;-84
2023/07/05 09:20:24;;;;;;;8.75;4.90;;;;;;;28.77;64.27;100278.66;6634198;26;33882;-84
2023/07/05 09:23:33;;;;;;;7.97;5.00;;;;;;;28.64;66.17;100279.44;6634946;26;33881;-84
2023/07/05 09:26:40;;;;;;;7.93;5.15;;;;;;;28.70;66.95;100279.03;6633603;26;34216;-88
2023/07/05 09:29:58;;;;;;;7.03;5.05;;;;;;;28.80;66.09;100280.00;6633573;26;34129;-84
2023/07/05 09:33:15;;;;;;;10.85;5.20;;;;;;;28.95;65.47;100271.41;6614406;26;34710;-84
2023/07/05 09:36:24;;;;;;;8.18;4.85;;;;;;;29.11;64.52;100275.63;6596449;26;33397;-84
2023/07/05 09:39:38;;;;;;;8.35;4.85;;;;;;;29.42;62.67;100275.03;6633532;26;34260;-84
2023/07/05 09:42:47;;;;;;;7.75;4.62;;;;;;;30.00;57.69;100268.06;6633532;26;34029;-84
2023/07/05 09:45:50;;;;;;;8.82;4.45;;;;;;;29.86;54.61;100268.09;6633875;26;33699;-84
2023/07/05 09:48:54;;;;;;;13.10;5.30;;;;;;;29.93;55.98;100268.50;6613074;26;34873;-84
2023/07/05 09:51:59;;;;;;;9.38;5.60;;;;;;;29.37;56.87;100266.84;6595585;26;33730;-84
2023/07/05 09:55:03;;;;;;;8.68;5.32;;;;;;;28.70;58.10;100275.44;6614679;26;33975;-84
2023/07/05 09:58:15;;;;;;;7.43;4.75;;;;;;;27.96;60.68;100261.25;6614418;26;33537;-84
2023/07/05 10:01:22;;;;;;;12.63;5.60;;;;;;;27.89;61.67;100258.03;6645843;26;34694;-84
2023/07/05 10:04:28;;;;;;;7.28;5.22;;;;;;;27.98;63.81;100257.06;6652838;26;34697;-84
2023/07/05 10:07:35;;;;;;;11.40;5.93;;;;;;;28.70;60.70;100256.06;6615120;26;34148;-84
2023/07/05 10:10:40;;;;;;;10.97;5.40;;;;;;;29.19;61.91;100256.63;6633638;26;34654;-84
2023/07/05 10:13:43;;;;;;;8.90;5.07;;;;;;;29.77;56.58;100253.28;6614108;26;33814;-84
2023/07/05 10:16:53;;;;;;;6.72;4.70;;;;;;;30.10;56.44;100251.22;6599327;26;34360;-84
2023/07/05 10:19:56;;;;;;;7.87;5.28;;;;;;;29.99;53.98;100253.38;6632977;26;33857;-84
2023/07/05 10:23:22;;;;;;;7.95;4.70;;;;;;;29.20;54.84;100255.50;6595506;26;34489;-84
2023/07/05 10:26:26;;;;;;;8.30;4.95;;;;;;;28.67;58.50;100248.34;6613878;26;34006;-88
2023/07/05 10:29:31;;;;;;;8.43;5.15;;;;;;;28.57;58.59;100254.84;6613317;26;33746;-86
2023/07/05 10:32:36;;;;;;;8.52;5.03;;;;;;;28.44;59.43;100241.78;6633854;26;33663;-84
2023/07/05 10:36:09;;;;;;;7.78;4.60;;;;;;;29.33;56.99;100243.59;6613904;26;32334;-84
2023/07/05 10:39:12;;;;;;;7.20;4.93;;;;;;;29.99;52.40;100247.00;6632275;26;33678;-84
2023/07/05 10:42:15;;;;;;;6.95;4.50;;;;;;;30.22;50.46;100234.84;6595433;26;33820;-84
2023/07/05 10:45:20;;;;;;;9.30;5.10;;;;;;;30.39;49.81;100242.53;6595543;26;34265;-84
2023/07/05 10:48:38;;;;;;;8.70;5.18;;;;;;;29.68;51.39;100238.50;6613754;26;33485;-84
2023/07/05 10:51:47;;;;;;;8.67;5.07;;;;;;;30.03;52.27;100240.50;6633871;26;34589;-84
2023/07/05 10:54:53;;;;;;;9.45;4.90;;;;;;;31.10;48.91;100230.78;6633287;26;33834;-84
2023/07/05 10:58:16;;;;;;;7.10;4.68;;;;;;;31.69;46.10;100222.19;6633929;26;33499;-84
2023/07/05 11:01:28;;;;;;;7.75;4.72;;;;;;;31.09;48.20;100221.59;6633899;26;34797;-84
2023/07/05 11:04:33;;;;;;;7.25;4.65;;;;;;;30.48;50.25;100228.72;6633184;26;33799;-84
2023/07/05 11:07:37;;;;;;;5.60;4.25;;;;;;;30.10;49.79;100228.16;6633152;26;33886;-84
2023/07/05 11:10:41;;;;;;;6.47;4.50;;;;;;;30.02;49.73;100218.62;6613348;26;34496;-84
2023/07/05 11:13:48;;;;;;;8.77;4.45;;;;;;;30.73;48.98;100214.16;6613942;26;34603;-84
2023/07/05 11:16:51;;;;;;;11.23;5.10;;;;;;;32.15;46.65;100204.09;6613249;26;34052;-84
2023/07/05 11:19:54;;;;;;;7.03;4.30;;;;;;;32.66;43.31;100205.25;6613174;26;34499;-84
2023/07/05 11:22:57;;;;;;;6.60;3.92;;;;;;;33.91;41.89;100198.56;6613576;26;33884;-84
2023/07/05 11:26:01;;;;;;;5.57;4.25;;;;;;;34.59;38.45;100212.34;6632769;26;33622;-84
2023/07/05 11:29:32;;;;;;;7.70;3.72;;;;;;;34.82;36.63;100193.19;6633103;26;33737;-88
2023/07/05 11:33:03;;;;;;;8.80;4.43;;;;;;;35.80;34.55;100188.50;6633878;26;33799;-84
2023/07/05 11:36:30;;;;;;;6.20;3.70;;;;;;;37.72;31.56;100185.75;6653344;26;34237;-84
2023/07/05 11:39:34;;;;;;;7.28;4.47;;;;;;;38.02;30.25;100194.47;6644525;26;34858;-84
2023/07/05 11:42:37;;;;;;;7.40;4.37;;;;;;;38.47;30.24;100181.81;6632963;26;33888;-84
2023/07/05 11:45:46;;;;;;;5.43;4.00;;;;;;;39.67;28.44;100175.06;6633280;26;35294;-83
2023/07/05 11:48:49;;;;;;;6.43;4.35;;;;;;;39.55;27.96;100189.34;6614354;26;33575;-84
2023/07/05 11:52:00;;;;;;;5.60;3.50;;;;;;;39.61;27.34;100176.56;6633572;26;34001;-84
2023/07/05 11:55:10;;;;;;;6.53;4.20;;;;;;;40.63;26.28;100167.03;6632732;26;33532;-84
2023/07/05 11:58:27;;;;;;;5.47;3.65;;;;;;;42.82;23.60;100157.12;6632712;26;34898;-84
2023/07/05 12:01:35;;;;;;;4.53;3.80;;;;;;;42.37;23.32;100156.63;6633358;26;34094;-84
2023/07/05 12:04:39;;;;;;;4.53;3.47;;;;;;;43.08;22.66;100155.91;6634861;26;34703;-84
2023/07/05 12:07:47;;;;;;;4.45;2.92;;;;;;;43.37;22.34;100148.22;6632565;26;34858;-84
2023/07/05 12:10:58;;;;;;;3.75;3.35;;;;;;;43.01;22.05;100134.06;6632860;26;33527;-84
2023/07/05 12:14:04;;;;;;;3.75;3.25;;;;;;;42.27;23.40;100127.84;6633128;26;34141;-88
2023/07/05 12:17:14;;;;;;;6.03;3.80;;;;;;;43.46;21.35;100128.75;6632686;26;34177;-85
2023/07/05 12:20:26;;;;;;;5.68;3.78;;;;;;;43.87;20.84;100123.38;6613780;26;34453;-85
2023/07/05 12:23:29;;;;;;;4.80;3.37;;;;;;;43.95;20.95;100123.41;6632761;26;33993;-84
2023/07/05 12:26:34;;;;;;;5.75;3.58;;;;;;;44.09;20.72;100115.63;6594988;26;34592;-85
2023/07/05 12:29:39;;;;;;;3.78;3.00;;;;;;;44.09;20.92;100109.16;6632394;26;33970;-84
2023/07/05 12:32:51;;;;;;;8.40;3.63;;;;;;;44.36;19.97;100104.53;6612393;26;34133;-84
2023/07/05 12:36:14;;;;;;;5.53;3.60;;;;;;;44.92;19.79;100098.06;6632653;26;33930;-84
2023/07/05 12:39:18;;;;;;;4.85;3.53;;;;;;;44.25;20.47;100108.66;6632452;26;33779;-84
2023/07/05 12:42:21;;;;;;;5.18;3.67;;;;;;;44.32;20.71;100091.59;6612756;26;34555;-84
2023/07/05 12:45:28;;;;;;;4.00;3.15;;;;;;;44.32;19.14;100080.22;6594967;26;34568;-84
2023/07/05 12:48:31;;;;;;;4.97;3.70;;;;;;;43.07;20.67;100077.81;6633228;26;33755;-84
2023/07/05 12:51:35;;;;;;;4.68;3.60;;;;;;;44.01;19.92;100070.69;6613730;26;35281;-84
2023/07/05 12:54:38;;;;;;;5.50;3.87;;;;;;;43.14;20.11;100078.63;6633462;26;33903;-85
2023/07/05 12:57:40;;;;;;;5.43;3.65;;;;;;;44.05;21.10;100068.63;6600893;26;33904;-84
2023/07/05 13:00:50;;;;;;;7.53;3.85;;;;;;;43.88;19.51;100071.13;6633958;26;35268;-85
2023/07/05 13:03:53;;;;;;;4.97;3.90;;;;;;;41.44;22.29;100066.44;6641209;26;34152;-85
